sensor_id;sensor_type;location;lat;lon;timestamp;P1;durP1;ratioP1;P2;durP2;ratioP2
24650;SDS011;12783;48.824;8.662;2023-11-18T00:02:14;13.82;;;4.72;;
24650;SDS011;12783;48.824;8.662;2023-11-18T00:04:42;11.45;;;5.03;;
24650;SDS011;12783;48.824;8.662;2023-11-18T00:07:09;16.95;;;5.60;;
24650;SDS011;12783;48.824;8.662;2023-11-18T00:09:36;18.85;;;5.60;;
24650;SDS011;12783;48.824;8.662;2023-11-18T00:12:03;13.18;;;4.55;;
24650;SDS011;12783;48.824;8.662;2023-11-18T00:14:31;13.23;;;4.68;;
24650;SDS011;12783;48.824;8.662;2023-11-18T00:16:58;10.15;;;4.07;;
24650;SDS011;12783;48.824;8.662;2023-11-18T00:19:25;15.68;;;5.18;;
24650;SDS011;12783;48.824;8.662;2023-11-18T00:21:52;15.18;;;4.53;;
24650;SDS011;12783;48.824;8.662;2023-11-18T00:24:19;11.10;;;4.65;;
24650;SDS011;12783;48.824;8.662;2023-11-18T00:26:47;6.93;;;3.45;;
24650;SDS011;12783;48.824;8.662;2023-11-18T00:29:14;11.00;;;4.13;;
24650;SDS011;12783;48.824;8.662;2023-11-18T00:31:41;10.90;;;4.20;;
24650;SDS011;12783;48.824;8.662;2023-11-18T00:34:08;9.05;;;3.42;;
24650;SDS011;12783;48.824;8.662;2023-11-18T00:36:35;7.85;;;3.50;;
24650;SDS011;12783;48.824;8.662;2023-11-18T00:39:02;8.07;;;3.53;;
24650;SDS011;12783;48.824;8.662;2023-11-18T00:41:30;9.13;;;3.97;;
24650;SDS011;12783;48.824;8.662;2023-11-18T00:43:57;7.68;;;3.47;;
24650;SDS011;12783;48.824;8.662;2023-11-18T00:46:24;8.40;;;3.22;;
24650;SDS011;12783;48.824;8.662;2023-11-18T00:48:51;8.68;;;3.75;;
24650;SDS011;12783;48.824;8.662;2023-11-18T00:51:18;7.63;;;3.97;;
24650;SDS011;12783;48.824;8.662;2023-11-18T00:53:45;7.53;;;3.67;;
24650;SDS011;12783;48.824;8.662;2023-11-18T00:56:15;12.30;;;3.90;;
24650;SDS011;12783;48.824;8.662;2023-11-18T00:58:44;10.50;;;3.75;;
24650;SDS011;12783;48.824;8.662;2023-11-18T01:01:11;9.00;;;3.72;;
24650;SDS011;12783;48.824;8.662;2023-11-18T01:03:38;13.30;;;3.80;;
24650;SDS011;12783;48.824;8.662;2023-11-18T01:06:05;9.38;;;3.78;;
24650;SDS011;12783;48.824;8.662;2023-11-18T01:08:32;8.52;;;3.42;;
24650;SDS011;12783;48.824;8.662;2023-11-18T01:10:59;9.25;;;3.25;;
24650;SDS011;12783;48.824;8.662;2023-11-18T01:13:26;8.52;;;3.00;;
24650;SDS011;12783;48.824;8.662;2023-11-18T01:15:53;5.20;;;2.35;;
24650;SDS011;12783;48.824;8.662;2023-11-18T01:18:20;5.15;;;2.60;;
24650;SDS011;12783;48.824;8.662;2023-11-18T01:20:47;5.82;;;2.97;;
24650;SDS011;12783;48.824;8.662;2023-11-18T01:23:14;6.78;;;2.60;;
24650;SDS011;12783;48.824;8.662;2023-11-18T01:25:41;5.85;;;2.95;;
24650;SDS011;12783;48.824;8.662;2023-11-18T01:28:08;8.63;;;2.65;;
24650;SDS011;12783;48.824;8.662;2023-11-18T01:30:35;6.95;;;3.20;;
24650;SDS011;12783;48.824;8.662;2023-11-18T01:33:02;7.65;;;4.25;;
24650;SDS011;12783;48.824;8.662;2023-11-18T01:35:30;6.47;;;3.25;;
24650;SDS011;12783;48.824;8.662;2023-11-18T01:37:57;11.18;;;3.53;;
24650;SDS011;12783;48.824;8.662;2023-11-18T01:40:25;10.13;;;3.33;;
24650;SDS011;12783;48.824;8.662;2023-11-18T01:42:52;8.57;;;3.30;;
24650;SDS011;12783;48.824;8.662;2023-11-18T01:45:18;7.05;;;2.65;;
24650;SDS011;12783;48.824;8.662;2023-11-18T01:47:45;6.63;;;3.20;;
24650;SDS011;12783;48.824;8.662;2023-11-18T01:50:15;8.25;;;2.97;;
24650;SDS011;12783;48.824;8.662;2023-11-18T01:52:44;7.10;;;3.10;;
24650;SDS011;12783;48.824;8.662;2023-11-18T01:55:12;10.27;;;3.30;;
24650;SDS011;12783;48.824;8.662;2023-11-18T01:57:39;11.30;;;3.28;;
24650;SDS011;12783;48.824;8.662;2023-11-18T02:00:10;6.82;;;3.08;;
24650;SDS011;12783;48.824;8.662;2023-11-18T02:02:39;7.03;;;2.97;;
24650;SDS011;12783;48.824;8.662;2023-11-18T02:05:07;9.98;;;3.17;;
24650;SDS011;12783;48.824;8.662;2023-11-18T02:07:34;6.70;;;3.65;;
24650;SDS011;12783;48.824;8.662;2023-11-18T02:10:04;5.55;;;3.17;;
24650;SDS011;12783;48.824;8.662;2023-11-18T02:12:43;7.32;;;3.08;;
24650;SDS011;12783;48.824;8.662;2023-11-18T02:15:33;7.68;;;3.08;;
24650;SDS011;12783;48.824;8.662;2023-11-18T02:18:02;7.35;;;2.85;;
24650;SDS011;12783;48.824;8.662;2023-11-18T02:20:32;4.50;;;2.47;;
24650;SDS011;12783;48.824;8.662;2023-11-18T02:23:00;6.35;;;2.33;;
24650;SDS011;12783;48.824;8.662;2023-11-18T02:25:28;4.63;;;2.88;;
24650;SDS011;12783;48.824;8.662;2023-11-18T02:27:59;6.32;;;2.47;;
24650;SDS011;12783;48.824;8.662;2023-11-18T02:30:26;5.15;;;2.50;;
24650;SDS011;12783;48.824;8.662;2023-11-18T02:36:18;4.45;;;2.50;;
24650;SDS011;12783;48.824;8.662;2023-11-18T02:39:10;5.20;;;2.53;;
24650;SDS011;12783;48.824;8.662;2023-11-18T02:41:48;3.70;;;2.50;;
24650;SDS011;12783;48.824;8.662;2023-11-18T02:44:19;8.25;;;2.50;;
24650;SDS011;12783;48.824;8.662;2023-11-18T02:46:49;3.63;;;2.30;;
24650;SDS011;12783;48.824;8.662;2023-11-18T02:49:16;6.82;;;2.60;;
24650;SDS011;12783;48.824;8.662;2023-11-18T02:51:43;10.80;;;2.50;;
24650;SDS011;12783;48.824;8.662;2023-11-18T02:54:13;5.07;;;2.72;;
24650;SDS011;12783;48.824;8.662;2023-11-18T02:56:42;3.15;;;2.00;;
24650;SDS011;12783;48.824;8.662;2023-11-18T02:59:09;6.43;;;2.80;;
24650;SDS011;12783;48.824;8.662;2023-11-18T03:01:36;11.68;;;2.67;;
24650;SDS011;12783;48.824;8.662;2023-11-18T03:04:06;3.80;;;2.50;;
24650;SDS011;12783;48.824;8.662;2023-11-18T03:06:34;4.97;;;3.00;;
24650;SDS011;12783;48.824;8.662;2023-11-18T03:09:02;6.88;;;2.42;;
24650;SDS011;12783;48.824;8.662;2023-11-18T03:11:33;5.88;;;2.63;;
24650;SDS011;12783;48.824;8.662;2023-11-18T03:14:00;6.30;;;2.80;;
24650;SDS011;12783;48.824;8.662;2023-11-18T03:16:27;9.00;;;2.53;;
24650;SDS011;12783;48.824;8.662;2023-11-18T03:18:54;6.93;;;2.58;;
24650;SDS011;12783;48.824;8.662;2023-11-18T03:21:22;3.70;;;2.28;;
24650;SDS011;12783;48.824;8.662;2023-11-18T03:23:48;4.95;;;2.97;;
24650;SDS011;12783;48.824;8.662;2023-11-18T03:26:15;3.22;;;2.25;;
24650;SDS011;12783;48.824;8.662;2023-11-18T03:28:42;7.05;;;2.13;;
24650;SDS011;12783;48.824;8.662;2023-11-18T03:31:09;2.85;;;2.08;;
24650;SDS011;12783;48.824;8.662;2023-11-18T03:33:37;5.28;;;2.40;;
24650;SDS011;12783;48.824;8.662;2023-11-18T03:36:04;2.70;;;2.15;;
24650;SDS011;12783;48.824;8.662;2023-11-18T03:38:32;4.22;;;2.50;;
24650;SDS011;12783;48.824;8.662;2023-11-18T03:40:59;2.97;;;2.25;;
24650;SDS011;12783;48.824;8.662;2023-11-18T03:43:26;3.28;;;2.13;;
24650;SDS011;12783;48.824;8.662;2023-11-18T03:45:53;3.60;;;2.40;;
24650;SDS011;12783;48.824;8.662;2023-11-18T03:48:23;3.50;;;2.55;;
24650;SDS011;12783;48.824;8.662;2023-11-18T03:50:50;6.32;;;2.40;;
24650;SDS011;12783;48.824;8.662;2023-11-18T03:53:17;5.82;;;2.08;;
24650;SDS011;12783;48.824;8.662;2023-11-18T03:55:44;13.65;;;2.63;;
24650;SDS011;12783;48.824;8.662;2023-11-18T03:58:11;3.70;;;2.28;;
24650;SDS011;12783;48.824;8.662;2023-11-18T04:00:38;5.70;;;2.20;;
24650;SDS011;12783;48.824;8.662;2023-11-18T04:03:05;3.67;;;1.70;;
24650;SDS011;12783;48.824;8.662;2023-11-18T04:05:33;7.13;;;2.13;;
24650;SDS011;12783;48.824;8.662;2023-11-18T04:08:01;2.63;;;1.90;;
24650;SDS011;12783;48.824;8.662;2023-11-18T04:10:28;3.88;;;1.70;;
24650;SDS011;12783;48.824;8.662;2023-11-18T04:12:54;4.22;;;2.03;;
24650;SDS011;12783;48.824;8.662;2023-11-18T04:15:22;2.33;;;1.65;;
24650;SDS011;12783;48.824;8.662;2023-11-18T04:17:48;4.00;;;1.55;;
24650;SDS011;12783;48.824;8.662;2023-11-18T04:20:15;2.97;;;2.05;;
24650;SDS011;12783;48.824;8.662;2023-11-18T04:22:43;2.75;;;1.33;;
24650;SDS011;12783;48.824;8.662;2023-11-18T04:25:10;4.35;;;1.63;;
24650;SDS011;12783;48.824;8.662;2023-11-18T04:27:38;6.25;;;1.75;;
24650;SDS011;12783;48.824;8.662;2023-11-18T04:30:07;2.20;;;1.50;;
24650;SDS011;12783;48.824;8.662;2023-11-18T04:32:35;4.78;;;1.50;;
24650;SDS011;12783;48.824;8.662;2023-11-18T04:35:02;5.10;;;1.40;;
24650;SDS011;12783;48.824;8.662;2023-11-18T04:37:34;4.13;;;1.30;;
24650;SDS011;12783;48.824;8.662;2023-11-18T04:40:02;5.82;;;1.48;;
24650;SDS011;12783;48.824;8.662;2023-11-18T04:42:30;1.67;;;1.27;;
24650;SDS011;12783;48.824;8.662;2023-11-18T04:44:57;2.67;;;1.92;;
24650;SDS011;12783;48.824;8.662;2023-11-18T04:47:24;2.97;;;1.48;;
24650;SDS011;12783;48.824;8.662;2023-11-18T04:49:54;2.88;;;1.33;;
24650;SDS011;12783;48.824;8.662;2023-11-18T04:52:20;3.08;;;1.23;;
24650;SDS011;12783;48.824;8.662;2023-11-18T04:54:47;6.07;;;1.30;;
24650;SDS011;12783;48.824;8.662;2023-11-18T04:57:15;1.90;;;1.55;;
24650;SDS011;12783;48.824;8.662;2023-11-18T04:59:43;3.92;;;1.35;;
24650;SDS011;12783;48.824;8.662;2023-11-18T05:02:10;2.78;;;1.38;;
24650;SDS011;12783;48.824;8.662;2023-11-18T05:04:37;2.63;;;1.48;;
24650;SDS011;12783;48.824;8.662;2023-11-18T05:07:04;2.03;;;1.30;;
24650;SDS011;12783;48.824;8.662;2023-11-18T05:09:32;2.10;;;1.60;;
24650;SDS011;12783;48.824;8.662;2023-11-18T05:12:00;4.40;;;1.40;;
24650;SDS011;12783;48.824;8.662;2023-11-18T05:14:27;7.40;;;1.30;;
24650;SDS011;12783;48.824;8.662;2023-11-18T05:16:55;4.53;;;1.30;;
24650;SDS011;12783;48.824;8.662;2023-11-18T05:19:22;4.65;;;1.05;;
24650;SDS011;12783;48.824;8.662;2023-11-18T05:21:50;2.85;;;1.15;;
24650;SDS011;12783;48.824;8.662;2023-11-18T05:24:16;1.08;;;0.75;;
24650;SDS011;12783;48.824;8.662;2023-11-18T05:26:43;1.83;;;0.82;;
24650;SDS011;12783;48.824;8.662;2023-11-18T05:29:10;1.15;;;1.00;;
24650;SDS011;12783;48.824;8.662;2023-11-18T05:31:42;2.08;;;1.00;;
24650;SDS011;12783;48.824;8.662;2023-11-18T05:34:10;1.67;;;1.00;;
24650;SDS011;12783;48.824;8.662;2023-11-18T05:36:38;1.25;;;1.00;;
24650;SDS011;12783;48.824;8.662;2023-11-18T05:39:06;4.13;;;1.10;;
24650;SDS011;12783;48.824;8.662;2023-11-18T05:41:35;3.05;;;1.13;;
24650;SDS011;12783;48.824;8.662;2023-11-18T05:44:06;2.00;;;0.98;;
24650;SDS011;12783;48.824;8.662;2023-11-18T05:46:36;2.63;;;0.90;;
24650;SDS011;12783;48.824;8.662;2023-11-18T05:49:05;3.15;;;1.08;;
24650;SDS011;12783;48.824;8.662;2023-11-18T05:51:34;2.05;;;1.10;;
24650;SDS011;12783;48.824;8.662;2023-11-18T05:54:01;1.58;;;1.00;;
24650;SDS011;12783;48.824;8.662;2023-11-18T05:56:29;2.42;;;1.02;;
24650;SDS011;12783;48.824;8.662;2023-11-18T05:58:56;2.03;;;1.27;;
24650;SDS011;12783;48.824;8.662;2023-11-18T06:01:23;2.25;;;0.90;;
24650;SDS011;12783;48.824;8.662;2023-11-18T06:03:53;2.15;;;1.02;;
24650;SDS011;12783;48.824;8.662;2023-11-18T06:06:20;4.38;;;1.35;;
24650;SDS011;12783;48.824;8.662;2023-11-18T06:08:50;1.75;;;1.00;;
24650;SDS011;12783;48.824;8.662;2023-11-18T06:11:18;5.50;;;1.20;;
24650;SDS011;12783;48.824;8.662;2023-11-18T06:13:47;7.57;;;1.42;;
24650;SDS011;12783;48.824;8.662;2023-11-18T06:16:22;3.13;;;1.15;;
24650;SDS011;12783;48.824;8.662;2023-11-18T06:18:54;4.93;;;1.50;;
24650;SDS011;12783;48.824;8.662;2023-11-18T06:21:24;4.88;;;1.50;;
24650;SDS011;12783;48.824;8.662;2023-11-18T06:23:58;1.38;;;1.27;;
24650;SDS011;12783;48.824;8.662;2023-11-18T06:26:26;4.32;;;1.38;;
24650;SDS011;12783;48.824;8.662;2023-11-18T06:28:54;2.60;;;1.25;;
24650;SDS011;12783;48.824;8.662;2023-11-18T06:31:22;1.98;;;1.17;;
24650;SDS011;12783;48.824;8.662;2023-11-18T06:33:50;4.45;;;1.20;;
24650;SDS011;12783;48.824;8.662;2023-11-18T06:36:19;1.33;;;1.05;;
24650;SDS011;12783;48.824;8.662;2023-11-18T06:38:50;9.45;;;1.30;;
24650;SDS011;12783;48.824;8.662;2023-11-18T06:41:19;1.30;;;1.20;;
24650;SDS011;12783;48.824;8.662;2023-11-18T06:44:03;4.72;;;1.92;;
24650;SDS011;12783;48.824;8.662;2023-11-18T06:46:39;2.15;;;1.40;;
24650;SDS011;12783;48.824;8.662;2023-11-18T06:49:07;3.05;;;1.50;;
24650;SDS011;12783;48.824;8.662;2023-11-18T06:51:37;3.05;;;1.23;;
24650;SDS011;12783;48.824;8.662;2023-11-18T06:54:05;4.30;;;1.40;;
24650;SDS011;12783;48.824;8.662;2023-11-18T06:56:37;7.45;;;1.38;;
24650;SDS011;12783;48.824;8.662;2023-11-18T06:59:10;2.15;;;1.30;;
24650;SDS011;12783;48.824;8.662;2023-11-18T07:01:42;1.52;;;1.40;;
24650;SDS011;12783;48.824;8.662;2023-11-18T07:04:11;5.00;;;1.70;;
24650;SDS011;12783;48.824;8.662;2023-11-18T07:06:41;3.85;;;1.50;;
24650;SDS011;12783;48.824;8.662;2023-11-18T07:09:09;1.92;;;1.50;;
24650;SDS011;12783;48.824;8.662;2023-11-18T07:11:40;5.50;;;1.50;;
24650;SDS011;12783;48.824;8.662;2023-11-18T07:14:08;4.88;;;1.50;;
24650;SDS011;12783;48.824;8.662;2023-11-18T07:16:39;6.70;;;1.50;;
24650;SDS011;12783;48.824;8.662;2023-11-18T07:19:07;9.50;;;1.83;;
24650;SDS011;12783;48.824;8.662;2023-11-18T07:21:36;4.55;;;1.40;;
24650;SDS011;12783;48.824;8.662;2023-11-18T07:24:03;3.53;;;1.60;;
24650;SDS011;12783;48.824;8.662;2023-11-18T07:26:31;2.60;;;1.65;;
24650;SDS011;12783;48.824;8.662;2023-11-18T07:28:58;5.25;;;1.70;;
24650;SDS011;12783;48.824;8.662;2023-11-18T07:31:25;4.45;;;1.50;;
24650;SDS011;12783;48.824;8.662;2023-11-18T07:33:52;3.65;;;1.65;;
24650;SDS011;12783;48.824;8.662;2023-11-18T07:36:19;7.90;;;1.67;;
24650;SDS011;12783;48.824;8.662;2023-11-18T07:38:48;5.90;;;1.85;;
24650;SDS011;12783;48.824;8.662;2023-11-18T07:41:18;5.93;;;2.45;;
24650;SDS011;12783;48.824;8.662;2023-11-18T07:43:50;14.23;;;2.50;;
24650;SDS011;12783;48.824;8.662;2023-11-18T07:46:19;6.03;;;1.77;;
24650;SDS011;12783;48.824;8.662;2023-11-18T07:48:49;6.55;;;1.52;;
24650;SDS011;12783;48.824;8.662;2023-11-18T07:51:18;4.10;;;1.45;;
24650;SDS011;12783;48.824;8.662;2023-11-18T07:53:49;3.22;;;1.60;;
24650;SDS011;12783;48.824;8.662;2023-11-18T07:56:17;5.45;;;2.60;;
24650;SDS011;12783;48.824;8.662;2023-11-18T07:58:44;10.00;;;2.05;;
24650;SDS011;12783;48.824;8.662;2023-11-18T08:01:14;7.90;;;1.48;;
24650;SDS011;12783;48.824;8.662;2023-11-18T08:03:43;4.10;;;1.25;;
24650;SDS011;12783;48.824;8.662;2023-11-18T08:06:10;4.07;;;1.52;;
24650;SDS011;12783;48.824;8.662;2023-11-18T08:08:38;2.92;;;1.25;;
24650;SDS011;12783;48.824;8.662;2023-11-18T08:11:07;7.13;;;1.77;;
24650;SDS011;12783;48.824;8.662;2023-11-18T08:13:38;4.35;;;1.70;;
24650;SDS011;12783;48.824;8.662;2023-11-18T08:16:06;5.25;;;1.63;;
24650;SDS011;12783;48.824;8.662;2023-11-18T08:18:35;6.50;;;1.90;;
24650;SDS011;12783;48.824;8.662;2023-11-18T08:21:03;13.00;;;5.38;;
24650;SDS011;12783;48.824;8.662;2023-11-18T08:23:33;17.35;;;7.45;;
24650;SDS011;12783;48.824;8.662;2023-11-18T08:26:00;17.17;;;6.93;;
24650;SDS011;12783;48.824;8.662;2023-11-18T08:28:27;26.52;;;9.80;;
24650;SDS011;12783;48.824;8.662;2023-11-18T08:33:50;8.52;;;4.40;;
24650;SDS011;12783;48.824;8.662;2023-11-18T08:36:20;13.25;;;3.72;;
24650;SDS011;12783;48.824;8.662;2023-11-18T08:38:48;16.33;;;7.47;;
24650;SDS011;12783;48.824;8.662;2023-11-18T08:41:15;6.30;;;2.33;;
24650;SDS011;12783;48.824;8.662;2023-11-18T08:43:42;5.35;;;2.17;;
24650;SDS011;12783;48.824;8.662;2023-11-18T08:46:09;8.18;;;1.48;;
24650;SDS011;12783;48.824;8.662;2023-11-18T08:48:36;4.22;;;1.75;;
24650;SDS011;12783;48.824;8.662;2023-11-18T08:51:04;5.65;;;1.58;;
24650;SDS011;12783;48.824;8.662;2023-11-18T08:53:35;5.10;;;1.60;;
24650;SDS011;12783;48.824;8.662;2023-11-18T08:56:10;5.40;;;1.40;;
24650;SDS011;12783;48.824;8.662;2023-11-18T08:58:41;8.57;;;1.25;;
24650;SDS011;12783;48.824;8.662;2023-11-18T09:01:11;2.72;;;1.13;;
24650;SDS011;12783;48.824;8.662;2023-11-18T09:03:41;3.72;;;1.02;;
24650;SDS011;12783;48.824;8.662;2023-11-18T09:06:10;3.70;;;1.25;;
24650;SDS011;12783;48.824;8.662;2023-11-18T09:08:55;4.40;;;1.40;;
24650;SDS011;12783;48.824;8.662;2023-11-18T09:11:24;3.15;;;1.27;;
24650;SDS011;12783;48.824;8.662;2023-11-18T09:13:59;6.35;;;1.67;;
24650;SDS011;12783;48.824;8.662;2023-11-18T09:16:30;10.68;;;1.55;;
24650;SDS011;12783;48.824;8.662;2023-11-18T09:18:59;5.45;;;1.20;;
24650;SDS011;12783;48.824;8.662;2023-11-18T09:21:28;8.75;;;1.48;;
24650;SDS011;12783;48.824;8.662;2023-11-18T09:23:56;8.00;;;1.58;;
24650;SDS011;12783;48.824;8.662;2023-11-18T09:26:23;3.80;;;1.83;;
24650;SDS011;12783;48.824;8.662;2023-11-18T09:28:52;3.85;;;2.00;;
24650;SDS011;12783;48.824;8.662;2023-11-18T09:31:20;5.63;;;1.95;;
24650;SDS011;12783;48.824;8.662;2023-11-18T09:33:48;10.18;;;2.60;;
24650;SDS011;12783;48.824;8.662;2023-11-18T09:36:19;6.15;;;3.00;;
24650;SDS011;12783;48.824;8.662;2023-11-18T09:38:48;7.07;;;3.03;;
24650;SDS011;12783;48.824;8.662;2023-11-18T09:41:16;10.25;;;2.20;;
24650;SDS011;12783;48.824;8.662;2023-11-18T09:43:43;3.05;;;1.77;;
24650;SDS011;12783;48.824;8.662;2023-11-18T09:46:16;4.22;;;1.80;;
24650;SDS011;12783;48.824;8.662;2023-11-18T09:49:03;2.65;;;1.40;;
24650;SDS011;12783;48.824;8.662;2023-11-18T09:51:53;5.38;;;1.90;;
24650;SDS011;12783;48.824;8.662;2023-11-18T09:57:20;5.18;;;1.38;;
24650;SDS011;12783;48.824;8.662;2023-11-18T10:02:39;7.38;;;1.85;;
24650;SDS011;12783;48.824;8.662;2023-11-18T10:05:06;3.17;;;1.73;;
24650;SDS011;12783;48.824;8.662;2023-11-18T10:07:42;4.90;;;1.45;;
24650;SDS011;12783;48.824;8.662;2023-11-18T10:10:11;6.18;;;1.40;;
24650;SDS011;12783;48.824;8.662;2023-11-18T10:12:45;4.43;;;1.50;;
24650;SDS011;12783;48.824;8.662;2023-11-18T10:15:18;4.88;;;1.48;;
24650;SDS011;12783;48.824;8.662;2023-11-18T10:17:50;3.35;;;1.20;;
24650;SDS011;12783;48.824;8.662;2023-11-18T10:20:49;4.60;;;1.55;;
24650;SDS011;12783;48.824;8.662;2023-11-18T10:23:21;6.47;;;1.80;;
24650;SDS011;12783;48.824;8.662;2023-11-18T10:25:50;6.20;;;1.73;;
24650;SDS011;12783;48.824;8.662;2023-11-18T10:31:10;3.70;;;1.75;;
24650;SDS011;12783;48.824;8.662;2023-11-18T10:33:45;2.92;;;1.70;;
24650;SDS011;12783;48.824;8.662;2023-11-18T10:36:19;0.93;;;0.80;;
24650;SDS011;12783;48.824;8.662;2023-11-18T10:38:50;4.95;;;1.17;;
24650;SDS011;12783;48.824;8.662;2023-11-18T10:41:22;6.03;;;1.90;;
24650;SDS011;12783;48.824;8.662;2023-11-18T10:44:04;2.90;;;1.30;;
24650;SDS011;12783;48.824;8.662;2023-11-18T10:46:33;11.48;;;3.70;;
24650;SDS011;12783;48.824;8.662;2023-11-18T10:49:01;6.60;;;2.42;;
24650;SDS011;12783;48.824;8.662;2023-11-18T10:51:28;6.07;;;1.52;;
24650;SDS011;12783;48.824;8.662;2023-11-18T10:53:59;5.35;;;1.23;;
24650;SDS011;12783;48.824;8.662;2023-11-18T10:56:30;3.00;;;1.30;;
24650;SDS011;12783;48.824;8.662;2023-11-18T10:59:04;5.38;;;1.40;;
24650;SDS011;12783;48.824;8.662;2023-11-18T11:01:36;3.72;;;1.33;;
24650;SDS011;12783;48.824;8.662;2023-11-18T11:04:10;2.60;;;1.23;;
24650;SDS011;12783;48.824;8.662;2023-11-18T11:06:42;5.15;;;1.52;;
24650;SDS011;12783;48.824;8.662;2023-11-18T11:09:19;4.07;;;1.27;;
24650;SDS011;12783;48.824;8.662;2023-11-18T11:11:52;12.50;;;2.75;;
24650;SDS011;12783;48.824;8.662;2023-11-18T11:14:23;7.95;;;3.70;;
24650;SDS011;12783;48.824;8.662;2023-11-18T11:16:52;4.60;;;2.08;;
24650;SDS011;12783;48.824;8.662;2023-11-18T11:19:25;3.40;;;1.58;;
24650;SDS011;12783;48.824;8.662;2023-11-18T11:22:04;5.47;;;2.35;;
24650;SDS011;12783;48.824;8.662;2023-11-18T11:24:37;6.57;;;2.80;;
24650;SDS011;12783;48.824;8.662;2023-11-18T11:27:35;11.18;;;4.07;;
24650;SDS011;12783;48.824;8.662;2023-11-18T11:30:28;8.30;;;4.68;;
24650;SDS011;12783;48.824;8.662;2023-11-18T11:33:02;3.75;;;2.40;;
24650;SDS011;12783;48.824;8.662;2023-11-18T11:35:40;4.18;;;2.00;;
24650;SDS011;12783;48.824;8.662;2023-11-18T11:38:12;8.10;;;1.98;;
24650;SDS011;12783;48.824;8.662;2023-11-18T11:40:43;9.50;;;2.85;;
24650;SDS011;12783;48.824;8.662;2023-11-18T11:43:14;3.42;;;1.25;;
24650;SDS011;12783;48.824;8.662;2023-11-18T11:45:51;6.47;;;2.15;;
24650;SDS011;12783;48.824;8.662;2023-11-18T11:48:22;10.88;;;2.00;;
24650;SDS011;12783;48.824;8.662;2023-11-18T11:53:45;9.13;;;2.00;;
24650;SDS011;12783;48.824;8.662;2023-11-18T11:56:21;4.25;;;1.55;;
24650;SDS011;12783;48.824;8.662;2023-11-18T12:01:37;4.88;;;1.40;;
24650;SDS011;12783;48.824;8.662;2023-11-18T12:04:11;9.20;;;1.90;;
24650;SDS011;12783;48.824;8.662;2023-11-18T12:06:47;6.10;;;1.33;;
24650;SDS011;12783;48.824;8.662;2023-11-18T12:09:29;4.30;;;1.42;;
24650;SDS011;12783;48.824;8.662;2023-11-18T12:11:59;6.13;;;1.50;;
24650;SDS011;12783;48.824;8.662;2023-11-18T12:14:28;5.20;;;1.30;;
24650;SDS011;12783;48.824;8.662;2023-11-18T12:19:48;3.72;;;1.50;;
24650;SDS011;12783;48.824;8.662;2023-11-18T12:22:20;6.70;;;1.60;;
24650;SDS011;12783;48.824;8.662;2023-11-18T12:35:44;3.33;;;1.23;;
24650;SDS011;12783;48.824;8.662;2023-11-18T12:46:52;6.75;;;1.30;;
24650;SDS011;12783;48.824;8.662;2023-11-18T12:49:24;3.78;;;1.05;;
24650;SDS011;12783;48.824;8.662;2023-11-18T12:51:52;5.35;;;1.52;;
24650;SDS011;12783;48.824;8.662;2023-11-18T12:54:22;7.63;;;1.50;;
24650;SDS011;12783;48.824;8.662;2023-11-18T12:56:56;3.42;;;1.52;;
24650;SDS011;12783;48.824;8.662;2023-11-18T12:59:23;8.25;;;1.73;;
24650;SDS011;12783;48.824;8.662;2023-11-18T13:01:50;4.45;;;1.90;;
24650;SDS011;12783;48.824;8.662;2023-11-18T13:04:20;5.38;;;2.13;;
24650;SDS011;12783;48.824;8.662;2023-11-18T13:06:47;6.07;;;2.00;;
24650;SDS011;12783;48.824;8.662;2023-11-18T13:09:15;6.60;;;2.28;;
24650;SDS011;12783;48.824;8.662;2023-11-18T13:11:55;5.03;;;2.47;;
24650;SDS011;12783;48.824;8.662;2023-11-18T13:14:28;5.13;;;2.45;;
24650;SDS011;12783;48.824;8.662;2023-11-18T13:17:03;3.17;;;1.75;;
24650;SDS011;12783;48.824;8.662;2023-11-18T13:19:35;8.82;;;3.33;;
24650;SDS011;12783;48.824;8.662;2023-11-18T13:22:06;5.85;;;3.40;;
24650;SDS011;12783;48.824;8.662;2023-11-18T13:24:35;5.80;;;3.97;;
24650;SDS011;12783;48.824;8.662;2023-11-18T13:27:06;7.82;;;2.63;;
24650;SDS011;12783;48.824;8.662;2023-11-18T13:29:35;9.75;;;3.78;;
24650;SDS011;12783;48.824;8.662;2023-11-18T13:32:06;11.75;;;2.80;;
24650;SDS011;12783;48.824;8.662;2023-11-18T13:34:36;6.38;;;2.10;;
24650;SDS011;12783;48.824;8.662;2023-11-18T13:37:05;7.32;;;2.67;;
24650;SDS011;12783;48.824;8.662;2023-11-18T13:39:33;4.50;;;2.10;;
24650;SDS011;12783;48.824;8.662;2023-11-18T13:45:03;3.97;;;2.10;;
24650;SDS011;12783;48.824;8.662;2023-11-18T13:48:01;5.68;;;2.40;;
24650;SDS011;12783;48.824;8.662;2023-11-18T13:50:29;4.65;;;2.25;;
24650;SDS011;12783;48.824;8.662;2023-11-18T13:52:56;7.05;;;2.22;;
24650;SDS011;12783;48.824;8.662;2023-11-18T13:55:24;4.25;;;2.10;;
24650;SDS011;12783;48.824;8.662;2023-11-18T13:57:54;4.55;;;2.53;;
24650;SDS011;12783;48.824;8.662;2023-11-18T14:00:24;4.55;;;2.80;;
24650;SDS011;12783;48.824;8.662;2023-11-18T14:02:57;3.78;;;2.33;;
24650;SDS011;12783;48.824;8.662;2023-11-18T14:05:26;4.97;;;2.63;;
24650;SDS011;12783;48.824;8.662;2023-11-18T14:07:53;9.57;;;3.05;;
24650;SDS011;12783;48.824;8.662;2023-11-18T14:10:35;5.00;;;3.00;;
24650;SDS011;12783;48.824;8.662;2023-11-18T14:13:07;5.43;;;3.08;;
24650;SDS011;12783;48.824;8.662;2023-11-18T14:15:39;7.55;;;3.40;;
24650;SDS011;12783;48.824;8.662;2023-11-18T14:18:09;6.70;;;3.47;;
24650;SDS011;12783;48.824;8.662;2023-11-18T14:20:37;9.43;;;3.30;;
24650;SDS011;12783;48.824;8.662;2023-11-18T14:23:04;7.07;;;3.05;;
24650;SDS011;12783;48.824;8.662;2023-11-18T14:25:31;4.57;;;3.05;;
24650;SDS011;12783;48.824;8.662;2023-11-18T14:28:00;8.55;;;3.40;;
24650;SDS011;12783;48.824;8.662;2023-11-18T14:30:28;4.07;;;2.67;;
24650;SDS011;12783;48.824;8.662;2023-11-18T14:32:56;6.40;;;2.97;;
24650;SDS011;12783;48.824;8.662;2023-11-18T14:35:23;5.72;;;2.90;;
24650;SDS011;12783;48.824;8.662;2023-11-18T14:37:55;5.45;;;2.67;;
24650;SDS011;12783;48.824;8.662;2023-11-18T14:40:22;6.65;;;2.72;;
24650;SDS011;12783;48.824;8.662;2023-11-18T14:42:50;4.63;;;2.47;;
24650;SDS011;12783;48.824;8.662;2023-11-18T14:45:17;4.65;;;2.67;;
24650;SDS011;12783;48.824;8.662;2023-11-18T14:47:44;8.60;;;2.50;;
24650;SDS011;12783;48.824;8.662;2023-11-18T14:50:12;8.68;;;2.40;;
24650;SDS011;12783;48.824;8.662;2023-11-18T14:52:47;3.72;;;2.10;;
24650;SDS011;12783;48.824;8.662;2023-11-18T14:55:18;5.90;;;2.47;;
24650;SDS011;12783;48.824;8.662;2023-11-18T14:57:45;4.35;;;2.38;;
24650;SDS011;12783;48.824;8.662;2023-11-18T15:00:13;3.92;;;2.20;;
24650;SDS011;12783;48.824;8.662;2023-11-18T15:02:49;5.60;;;2.53;;
24650;SDS011;12783;48.824;8.662;2023-11-18T15:05:20;6.97;;;3.30;;
24650;SDS011;12783;48.824;8.662;2023-11-18T15:07:49;6.45;;;2.83;;
24650;SDS011;12783;48.824;8.662;2023-11-18T15:10:20;7.72;;;3.20;;
24650;SDS011;12783;48.824;8.662;2023-11-18T15:12:56;4.57;;;2.00;;
24650;SDS011;12783;48.824;8.662;2023-11-18T15:15:25;7.38;;;2.95;;
24650;SDS011;12783;48.824;8.662;2023-11-18T15:17:59;4.38;;;2.53;;
24650;SDS011;12783;48.824;8.662;2023-11-18T15:20:32;3.13;;;2.45;;
24650;SDS011;12783;48.824;8.662;2023-11-18T15:22:59;3.60;;;2.70;;
24650;SDS011;12783;48.824;8.662;2023-11-18T15:25:27;5.20;;;2.80;;
24650;SDS011;12783;48.824;8.662;2023-11-18T15:27:54;6.60;;;3.63;;
24650;SDS011;12783;48.824;8.662;2023-11-18T15:30:22;6.88;;;3.78;;
24650;SDS011;12783;48.824;8.662;2023-11-18T15:32:51;6.53;;;3.53;;
24650;SDS011;12783;48.824;8.662;2023-11-18T15:35:19;6.53;;;3.10;;
24650;SDS011;12783;48.824;8.662;2023-11-18T15:37:47;8.48;;;3.47;;
24650;SDS011;12783;48.824;8.662;2023-11-18T15:40:15;7.05;;;3.63;;
24650;SDS011;12783;48.824;8.662;2023-11-18T15:42:51;5.72;;;3.47;;
24650;SDS011;12783;48.824;8.662;2023-11-18T15:45:19;5.68;;;3.63;;
24650;SDS011;12783;48.824;8.662;2023-11-18T15:47:51;5.68;;;3.28;;